createdAt,value
2022-08-25T00:00:54.270Z,17.75
2022-08-25T00:05:55.956Z,17.69
2022-08-25T00:11:03.204Z,17.69
2022-08-25T00:16:05.622Z,17.75
2022-08-25T00:21:07.848Z,17.73
2022-08-25T00:26:10.507Z,17.74
2022-08-25T00:31:20.242Z,17.65
2022-08-25T00:36:22.215Z,17.46
2022-08-25T00:41:25.275Z,17.48
2022-08-25T00:46:32.934Z,17.43
2022-08-25T00:51:43.106Z,17.49
2022-08-25T00:56:46.554Z,17.23
2022-08-25T01:01:49.487Z,17.31
2022-08-25T01:06:51.698Z,17.18
2022-08-25T01:11:53.384Z,17.12
2022-08-25T01:16:55.495Z,17.15
2022-08-25T01:21:57.257Z,16.97
2022-08-25T01:26:58.966Z,16.95
2022-08-25T01:32:04.650Z,16.88
2022-08-25T01:37:06.520Z,16.79
2022-08-25T01:42:11.593Z,16.93
2022-08-25T01:47:14.155Z,16.97
2022-08-25T01:52:33.417Z,16.88
2022-08-25T01:57:35.064Z,16.90
2022-08-25T02:02:36.775Z,16.95
2022-08-25T02:07:44.203Z,16.99
2022-08-25T02:12:45.867Z,17.10
2022-08-25T02:17:47.545Z,17.24
2022-08-25T02:22:56.615Z,17.39
2022-08-25T02:27:59.823Z,17.35
2022-08-25T02:33:01.762Z,17.31
2022-08-25T02:38:04.920Z,17.32
2022-08-25T02:43:06.662Z,17.47
2022-08-25T02:48:08.366Z,17.29
2022-08-25T02:53:10.042Z,17.23
2022-08-25T02:58:11.759Z,17.32
2022-08-25T03:03:13.674Z,17.25
2022-08-25T03:08:15.898Z,17.24
2022-08-25T03:13:18.184Z,17.26
2022-08-25T03:18:20.286Z,17.37
2022-08-25T03:23:21.967Z,17.46
2022-08-25T03:28:25.026Z,17.17
2022-08-25T03:33:32.236Z,17.11
2022-08-25T03:38:34.307Z,17.18
2022-08-25T03:43:35.959Z,17.01
2022-08-25T03:48:37.693Z,16.84
2022-08-25T03:53:39.453Z,17.12
2022-08-25T03:58:41.177Z,17.01
2022-08-25T04:03:43.781Z,16.94
2022-08-25T04:08:45.822Z,16.85
2022-08-25T04:13:48.479Z,16.96
2022-08-25T04:18:52.559Z,16.84
2022-08-25T04:23:56.417Z,16.79
2022-08-25T04:29:00.116Z,16.88
2022-08-25T04:34:17.693Z,16.95
2022-08-25T04:39:27.650Z,16.74
2022-08-25T04:44:30.897Z,17.04
2022-08-25T04:49:32.724Z,17.07
2022-08-25T04:54:37.197Z,17.29
2022-08-25T04:59:39.481Z,17.66
2022-08-25T05:04:41.598Z,17.58
2022-08-25T05:09:43.320Z,17.49
2022-08-25T05:14:45.097Z,17.46
2022-08-25T05:19:46.744Z,17.56
2022-08-25T05:24:48.377Z,17.72
2022-08-25T05:29:50.060Z,18.00
2022-08-25T05:34:51.706Z,18.21
2022-08-25T05:39:53.477Z,19.06
2022-08-25T05:44:55.574Z,19.75
2022-08-25T05:49:57.371Z,19.43
2022-08-25T05:55:00.710Z,20.27
2022-08-25T06:00:04.653Z,20.86
2022-08-25T06:05:23.059Z,20.65
2022-08-25T06:10:25.276Z,20.65
2022-08-25T06:15:27.219Z,20.90
2022-08-25T06:20:31.182Z,21.83
2022-08-25T06:25:33.921Z,22.29
2022-08-25T06:30:35.794Z,22.48
2022-08-25T06:35:42.040Z,21.33
2022-08-25T06:40:47.730Z,22.15
2022-08-25T06:45:49.365Z,22.90
2022-08-25T06:50:51.090Z,24.50
2022-08-25T06:55:57.873Z,25.63
2022-08-25T07:01:19.685Z,24.88
2022-08-25T07:06:21.523Z,24.05
2022-08-25T07:11:23.548Z,23.65
2022-08-25T07:16:25.739Z,23.36
2022-08-25T07:21:35.703Z,23.47
2022-08-25T07:26:39.897Z,25.06
2022-08-25T07:31:42.005Z,25.34
2022-08-25T07:36:44.253Z,26.29
2022-08-25T07:41:46.333Z,25.07
2022-08-25T07:46:48.693Z,27.00
2022-08-25T07:52:04.159Z,28.73
2022-08-25T07:57:09.041Z,30.27
2022-08-25T08:02:18.399Z,28.53
2022-08-25T08:07:25.837Z,31.50
2022-08-25T08:12:45.897Z,31.21
2022-08-25T08:17:47.659Z,31.37
2022-08-25T08:22:49.840Z,28.53
2022-08-25T08:27:51.585Z,27.14
2022-08-25T08:33:19.642Z,26.90
2022-08-25T08:38:22.105Z,26.67
2022-08-25T08:43:33.212Z,28.44
2022-08-25T08:48:53.966Z,32.21
2022-08-25T08:54:00.796Z,29.23
2022-08-25T08:59:13.094Z,29.19
2022-08-25T09:04:28.118Z,27.44
2022-08-25T09:09:35.611Z,27.54
2022-08-25T09:14:38.573Z,28.68
2022-08-25T09:19:58.487Z,30.25
2022-08-25T09:25:29.394Z,30.97
2022-08-25T09:30:56.937Z,33.75
2022-08-25T09:35:59.241Z,33.23
2022-08-25T09:41:07.849Z,33.91
2022-08-25T09:46:18.074Z,34.40
2022-08-25T09:51:38.209Z,33.92
2022-08-25T09:57:02.180Z,36.45
2022-08-25T10:02:26.058Z,37.64
2022-08-25T10:07:35.446Z,35.39
2022-08-25T10:12:44.049Z,31.01
2022-08-25T10:17:45.916Z,31.62
2022-08-25T10:22:50.745Z,33.14
2022-08-25T10:28:07.581Z,33.62
2022-08-25T10:33:23.188Z,36.54
2022-08-25T10:38:40.098Z,35.20
2022-08-25T10:43:59.376Z,35.32
2022-08-25T10:49:20.139Z,31.59
2022-08-25T10:54:30.458Z,31.63
2022-08-25T10:59:56.080Z,34.01
2022-08-25T11:05:18.397Z,36.54
2022-08-25T11:10:39.433Z,33.02
2022-08-25T11:16:13.744Z,30.03
2022-08-25T11:21:22.123Z,31.13
2022-08-25T11:26:36.662Z,30.60
2022-08-25T11:31:43.565Z,34.11
2022-08-25T11:36:59.902Z,33.59
2022-08-25T11:42:12.491Z,30.48
2022-08-25T11:47:21.454Z,30.63
2022-08-25T11:52:38.234Z,29.81
2022-08-25T11:57:44.751Z,30.80
2022-08-25T12:02:50.649Z,32.05
2022-08-25T12:08:12.201Z,33.28
2022-08-25T12:13:41.265Z,35.40
2022-08-25T12:18:46.213Z,32.39
2022-08-25T12:24:06.018Z,33.45
2022-08-25T12:29:11.840Z,34.79
2022-08-25T12:34:26.687Z,32.10
2022-08-25T12:39:34.093Z,32.23
2022-08-25T12:44:41.923Z,32.21
2022-08-25T12:49:44.122Z,32.47
2022-08-25T12:54:58.202Z,32.07
2022-08-25T13:00:16.763Z,33.35
2022-08-25T13:05:26.355Z,33.75
2022-08-25T13:10:34.177Z,35.30
2022-08-25T13:15:47.030Z,33.60
2022-08-25T13:20:55.918Z,33.14
2022-08-25T13:25:58.561Z,30.77
2022-08-25T13:31:14.138Z,31.23
2022-08-25T13:36:35.905Z,31.24
2022-08-25T13:41:43.661Z,32.16
2022-08-25T13:46:47.211Z,30.56
2022-08-25T13:51:54.442Z,31.34
2022-08-25T13:57:06.829Z,30.87
2022-08-25T14:02:15.077Z,30.92
2022-08-25T14:07:21.301Z,30.84
2022-08-25T14:12:45.512Z,31.37
2022-08-25T14:18:00.663Z,31.39
2022-08-25T14:23:18.713Z,29.79
2022-08-25T14:28:24.006Z,29.53
2022-08-25T14:33:32.772Z,29.41
2022-08-25T14:38:44.151Z,30.23
2022-08-25T14:43:46.097Z,30.80
2022-08-25T14:48:52.217Z,30.53
2022-08-25T14:53:57.440Z,29.40
2022-08-25T14:59:00.052Z,29.06
2022-08-25T15:04:06.424Z,29.36
2022-08-25T15:09:11.692Z,29.64
2022-08-25T15:14:18.368Z,29.77
2022-08-25T15:19:23.536Z,29.79
2022-08-25T15:24:26.755Z,28.71
2022-08-25T15:29:30.959Z,28.73
2022-08-25T15:34:32.842Z,28.61
2022-08-25T15:39:36.674Z,28.52
2022-08-25T15:44:39.529Z,28.15
2022-08-25T15:49:41.182Z,28.27
2022-08-25T15:54:42.858Z,28.23
2022-08-25T15:59:46.834Z,28.70
2022-08-25T16:04:51.558Z,28.96
2022-08-25T16:09:57.207Z,28.77
2022-08-25T16:14:58.972Z,28.14
2022-08-25T16:20:01.147Z,28.16
2022-08-25T16:25:03.078Z,28.07
2022-08-25T16:30:11.777Z,27.95
2022-08-25T16:35:15.515Z,27.76
2022-08-25T16:40:19.016Z,27.88
2022-08-25T16:45:22.105Z,27.59
2022-08-25T16:50:23.856Z,27.57
2022-08-25T16:55:27.082Z,27.47
2022-08-25T17:00:31.934Z,27.22
2022-08-25T17:05:40.636Z,27.12
2022-08-25T17:10:43.496Z,26.96
2022-08-25T17:15:48.923Z,26.76
2022-08-25T17:21:08.281Z,26.72
2022-08-25T17:26:14.686Z,26.52
2022-08-25T17:31:17.221Z,26.30
2022-08-25T17:36:19.270Z,26.12
2022-08-25T17:41:21.132Z,26.09
2022-08-25T17:46:22.947Z,25.96
2022-08-25T17:51:26.145Z,25.80
2022-08-25T17:56:33.478Z,25.58
2022-08-25T18:01:40.569Z,25.49
2022-08-25T18:06:42.784Z,25.39
2022-08-25T18:11:45.027Z,25.19
2022-08-25T18:16:46.750Z,25.01
2022-08-25T18:21:48.505Z,24.92
2022-08-25T18:26:50.191Z,24.89
2022-08-25T18:31:53.656Z,24.77
2022-08-25T18:37:17.700Z,24.66
2022-08-25T18:42:20.161Z,24.62
2022-08-25T18:47:22.948Z,24.53
2022-08-25T18:52:24.596Z,24.42
2022-08-25T18:57:26.688Z,23.95
2022-08-25T19:02:30.871Z,23.95
2022-08-25T19:07:32.668Z,23.69
2022-08-25T19:12:34.541Z,23.58
2022-08-25T19:17:38.767Z,23.60
2022-08-25T19:22:42.073Z,23.24
2022-08-25T19:32:47.810Z,22.87
2022-08-25T19:37:51.905Z,23.06
2022-08-25T19:42:53.965Z,22.81
2022-08-25T19:47:56.433Z,22.59
2022-08-25T19:52:59.940Z,22.57
2022-08-25T19:58:03.484Z,22.52
2022-08-25T20:03:06.241Z,22.25
2022-08-25T20:08:08.394Z,22.24
2022-08-25T20:13:10.292Z,22.20
2022-08-25T20:18:12.314Z,21.96
2022-08-25T20:23:40.124Z,22.19
2022-08-25T20:28:42.321Z,22.04
2022-08-25T20:33:44.102Z,21.73
2022-08-25T20:38:47.566Z,21.85
2022-08-25T20:43:50.119Z,21.81
2022-08-25T20:48:51.841Z,21.83
2022-08-25T20:53:53.816Z,21.68
2022-08-25T20:58:55.548Z,21.68
2022-08-25T21:03:57.376Z,21.68
2022-08-25T21:08:59.146Z,21.65
2022-08-25T21:14:02.291Z,21.42
2022-08-25T21:19:08.829Z,21.25
2022-08-25T21:24:13.141Z,21.14
2022-08-25T21:29:15.175Z,21.41
2022-08-25T21:34:18.941Z,21.32
2022-08-25T21:39:20.613Z,21.06
2022-08-25T21:44:22.304Z,21.18
2022-08-25T21:49:25.086Z,21.06
2022-08-25T21:54:26.997Z,20.97
2022-08-25T21:59:33.653Z,20.93
2022-08-25T22:04:36.020Z,20.89
2022-08-25T22:09:39.135Z,21.02
2022-08-25T22:14:41.028Z,21.09
2022-08-25T22:19:42.876Z,21.15
2022-08-25T22:24:44.518Z,20.92
2022-08-25T22:29:46.634Z,20.81
2022-08-25T22:34:49.109Z,20.73
2022-08-25T22:39:50.849Z,20.70
2022-08-25T22:44:53.964Z,20.62
2022-08-25T22:49:55.913Z,20.62
2022-08-25T22:54:57.684Z,20.70
2022-08-25T22:59:59.438Z,20.55
2022-08-25T23:05:01.747Z,20.35
2022-08-25T23:10:06.021Z,20.16
2022-08-25T23:15:12.396Z,20.28
2022-08-25T23:20:32.645Z,20.31
2022-08-25T23:25:39.597Z,20.41
2022-08-25T23:30:42.722Z,20.28
2022-08-25T23:35:46.497Z,20.21
2022-08-25T23:40:48.148Z,20.05
2022-08-25T23:45:50.121Z,20.07
2022-08-25T23:50:53.956Z,20.10
2022-08-25T23:55:57.435Z,20.07
